sensor_id;sensor_type;location;lat;lon;timestamp;pressure;altitude;pressure_sealevel;temperature;humidity
84785;BME280;75017;41.576;24.704;2024-03-22T00:00:03;90922.59;;;2.16;62.32
84785;BME280;75017;41.576;24.704;2024-03-22T00:02:29;90914.72;;;2.12;62.64
84785;BME280;75017;41.576;24.704;2024-03-22T00:04:54;90917.56;;;2.11;62.04
84785;BME280;75017;41.576;24.704;2024-03-22T00:07:20;90923.63;;;2.15;61.13
84785;BME280;75017;41.576;24.704;2024-03-22T00:09:45;90921.91;;;2.10;60.86
84785;BME280;75017;41.576;24.704;2024-03-22T00:12:11;90916.69;;;2.02;62.46
84785;BME280;75017;41.576;24.704;2024-03-22T00:14:36;90912.78;;;1.91;62.15
84785;BME280;75017;41.576;24.704;2024-03-22T00:17:02;90911.38;;;1.98;63.21
84785;BME280;75017;41.576;24.704;2024-03-22T00:19:27;90904.22;;;2.00;62.81
84785;BME280;75017;41.576;24.704;2024-03-22T00:21:53;90907.69;;;2.04;61.34
84785;BME280;75017;41.576;24.704;2024-03-22T00:24:18;90907.59;;;1.96;62.96
84785;BME280;75017;41.576;24.704;2024-03-22T00:26:44;90904.00;;;1.97;62.74
84785;BME280;75017;41.576;24.704;2024-03-22T00:29:09;90899.91;;;1.96;62.35
84785;BME280;75017;41.576;24.704;2024-03-22T00:31:35;90896.50;;;1.87;62.59
84785;BME280;75017;41.576;24.704;2024-03-22T00:34:00;90899.84;;;1.87;62.50
84785;BME280;75017;41.576;24.704;2024-03-22T00:36:26;90905.88;;;1.91;62.34
84785;BME280;75017;41.576;24.704;2024-03-22T00:38:51;90896.50;;;1.87;62.67
84785;BME280;75017;41.576;24.704;2024-03-22T00:41:17;90895.31;;;1.65;63.36
84785;BME280;75017;41.576;24.704;2024-03-22T00:43:42;90897.38;;;1.50;64.00
84785;BME280;75017;41.576;24.704;2024-03-22T00:46:08;90891.31;;;1.59;63.82
84785;BME280;75017;41.576;24.704;2024-03-22T00:48:33;90885.75;;;1.57;63.67
84785;BME280;75017;41.576;24.704;2024-03-22T00:51:00;90891.53;;;1.63;63.02
84785;BME280;75017;41.576;24.704;2024-03-22T00:53:26;90881.66;;;1.56;64.33
84785;BME280;75017;41.576;24.704;2024-03-22T00:55:51;90887.53;;;1.57;63.13
84785;BME280;75017;41.576;24.704;2024-03-22T00:58:18;90886.22;;;1.59;64.23
84785;BME280;75017;41.576;24.704;2024-03-22T01:00:44;90878.09;;;1.57;64.22
84785;BME280;75017;41.576;24.704;2024-03-22T01:03:10;90881.09;;;1.59;63.32
84785;BME280;75017;41.576;24.704;2024-03-22T01:05:35;90885.84;;;1.66;62.51
84785;BME280;75017;41.576;24.704;2024-03-22T01:08:01;90884.72;;;1.72;62.45
84785;BME280;75017;41.576;24.704;2024-03-22T01:10:26;90879.78;;;1.62;63.32
84785;BME280;75017;41.576;24.704;2024-03-22T01:12:52;90874.13;;;1.65;62.19
84785;BME280;75017;41.576;24.704;2024-03-22T01:15:18;90876.34;;;1.53;63.01
84785;BME280;75017;41.576;24.704;2024-03-22T01:17:43;90880.72;;;1.52;64.08
84785;BME280;75017;41.576;24.704;2024-03-22T01:20:10;90879.78;;;1.62;63.24
84785;BME280;75017;41.576;24.704;2024-03-22T01:22:35;90882.06;;;1.63;63.45
84785;BME280;75017;41.576;24.704;2024-03-22T01:25:02;90878.69;;;1.68;63.20
84785;BME280;75017;41.576;24.704;2024-03-22T01:27:28;90878.56;;;1.59;63.77
84785;BME280;75017;41.576;24.704;2024-03-22T01:29:53;90885.47;;;1.59;63.22
84785;BME280;75017;41.576;24.704;2024-03-22T01:32:19;90885.16;;;1.47;64.70
84785;BME280;75017;41.576;24.704;2024-03-22T01:34:44;90883.78;;;1.36;65.07
84785;BME280;75017;41.576;24.704;2024-03-22T01:37:10;90880.19;;;1.37;65.65
84785;BME280;75017;41.576;24.704;2024-03-22T01:39:35;90888.38;;;1.20;66.03
84785;BME280;75017;41.576;24.704;2024-03-22T01:42:01;90890.31;;;1.09;65.07
84785;BME280;75017;41.576;24.704;2024-03-22T01:44:31;90880.09;;;1.09;65.47
84785;BME280;75017;41.576;24.704;2024-03-22T01:46:58;90889.88;;;1.02;66.80
84785;BME280;75017;41.576;24.704;2024-03-22T01:49:25;90884.28;;;1.00;66.61
84785;BME280;75017;41.576;24.704;2024-03-22T01:51:51;90885.13;;;1.14;66.00
84785;BME280;75017;41.576;24.704;2024-03-22T01:54:17;90880.03;;;0.96;66.61
84785;BME280;75017;41.576;24.704;2024-03-22T01:56:44;90880.97;;;1.00;66.71
84785;BME280;75017;41.576;24.704;2024-03-22T01:59:10;90877.31;;;1.06;65.70
84785;BME280;75017;41.576;24.704;2024-03-22T02:01:36;90882.69;;;1.04;66.19
84785;BME280;75017;41.576;24.704;2024-03-22T02:04:02;90882.06;;;1.12;66.00
84785;BME280;75017;41.576;24.704;2024-03-22T02:06:28;90877.53;;;1.09;65.92
84785;BME280;75017;41.576;24.704;2024-03-22T02:08:53;90881.88;;;1.09;65.82
84785;BME280;75017;41.576;24.704;2024-03-22T02:11:19;90882.44;;;1.06;65.95
84785;BME280;75017;41.576;24.704;2024-03-22T02:13:45;90890.00;;;0.74;68.17
84785;BME280;75017;41.576;24.704;2024-03-22T02:16:11;90896.28;;;0.81;67.83
84785;BME280;75017;41.576;24.704;2024-03-22T02:18:36;90894.72;;;0.85;67.19
84785;BME280;75017;41.576;24.704;2024-03-22T02:21:02;90892.03;;;0.95;67.12
84785;BME280;75017;41.576;24.704;2024-03-22T02:23:33;90897.34;;;0.99;66.98
84785;BME280;75017;41.576;24.704;2024-03-22T02:25:59;90905.66;;;1.04;66.90
84785;BME280;75017;41.576;24.704;2024-03-22T02:28:25;90896.03;;;1.01;65.68
84785;BME280;75017;41.576;24.704;2024-03-22T02:30:51;90898.09;;;0.99;66.46
84785;BME280;75017;41.576;24.704;2024-03-22T02:33:16;90891.88;;;1.05;65.65
84785;BME280;75017;41.576;24.704;2024-03-22T02:35:42;90882.16;;;1.07;65.74
84785;BME280;75017;41.576;24.704;2024-03-22T02:38:08;90883.88;;;1.12;65.27
84785;BME280;75017;41.576;24.704;2024-03-22T02:40:33;90880.56;;;1.11;66.48
84785;BME280;75017;41.576;24.704;2024-03-22T02:42:59;90885.75;;;1.06;66.64
84785;BME280;75017;41.576;24.704;2024-03-22T02:45:24;90887.41;;;0.97;66.25
84785;BME280;75017;41.576;24.704;2024-03-22T02:47:50;90883.91;;;0.93;66.64
84785;BME280;75017;41.576;24.704;2024-03-22T02:50:15;90879.34;;;0.90;66.28
84785;BME280;75017;41.576;24.704;2024-03-22T02:52:41;90885.06;;;0.82;67.99
84785;BME280;75017;41.576;24.704;2024-03-22T02:55:07;90878.91;;;0.83;66.46
84785;BME280;75017;41.576;24.704;2024-03-22T02:57:33;90885.53;;;0.84;67.68
84785;BME280;75017;41.576;24.704;2024-03-22T03:00:00;90897.81;;;0.82;67.00
84785;BME280;75017;41.576;24.704;2024-03-22T03:02:25;90897.28;;;0.85;66.39
84785;BME280;75017;41.576;24.704;2024-03-22T03:04:51;90904.41;;;0.83;67.62
84785;BME280;75017;41.576;24.704;2024-03-22T03:07:16;90899.94;;;0.75;68.28
84785;BME280;75017;41.576;24.704;2024-03-22T03:09:42;90902.13;;;0.63;67.31
84785;BME280;75017;41.576;24.704;2024-03-22T03:12:07;90905.00;;;0.56;69.19
84785;BME280;75017;41.576;24.704;2024-03-22T03:14:33;90905.66;;;0.67;68.51
84785;BME280;75017;41.576;24.704;2024-03-22T03:16:58;90912.34;;;0.63;68.77
84785;BME280;75017;41.576;24.704;2024-03-22T03:19:24;90904.81;;;0.53;68.50
84785;BME280;75017;41.576;24.704;2024-03-22T03:21:49;90900.00;;;0.70;67.28
84785;BME280;75017;41.576;24.704;2024-03-22T03:24:15;90899.91;;;0.56;69.38
84785;BME280;75017;41.576;24.704;2024-03-22T03:26:40;90899.09;;;0.61;68.33
84785;BME280;75017;41.576;24.704;2024-03-22T03:29:06;90905.47;;;0.64;67.63
84785;BME280;75017;41.576;24.704;2024-03-22T03:31:32;90898.75;;;0.68;68.17
84785;BME280;75017;41.576;24.704;2024-03-22T03:33:57;90901.13;;;0.64;68.58
84785;BME280;75017;41.576;24.704;2024-03-22T03:36:23;90899.03;;;0.66;68.06
84785;BME280;75017;41.576;24.704;2024-03-22T03:38:48;90896.50;;;0.66;68.49
84785;BME280;75017;41.576;24.704;2024-03-22T03:41:14;90899.88;;;0.62;67.96
84785;BME280;75017;41.576;24.704;2024-03-22T03:43:39;90910.81;;;0.62;68.47
84785;BME280;75017;41.576;24.704;2024-03-22T03:46:05;90904.28;;;0.56;68.28
84785;BME280;75017;41.576;24.704;2024-03-22T03:48:30;90917.63;;;0.48;68.12
84785;BME280;75017;41.576;24.704;2024-03-22T03:50:56;90917.88;;;0.46;68.73
84785;BME280;75017;41.576;24.704;2024-03-22T03:53:24;90912.25;;;0.49;68.11
84785;BME280;75017;41.576;24.704;2024-03-22T03:55:50;90910.13;;;0.56;69.00
84785;BME280;75017;41.576;24.704;2024-03-22T03:58:15;90905.72;;;0.62;68.23
84785;BME280;75017;41.576;24.704;2024-03-22T04:01:07;90908.25;;;0.62;69.05
84785;BME280;75017;41.576;24.704;2024-03-22T04:03:33;90908.81;;;0.59;69.31
84785;BME280;75017;41.576;24.704;2024-03-22T04:05:59;90907.03;;;0.59;67.40
84785;BME280;75017;41.576;24.704;2024-03-22T04:08:25;90907.31;;;0.58;68.65
84785;BME280;75017;41.576;24.704;2024-03-22T04:10:52;90908.81;;;0.59;67.91
84785;BME280;75017;41.576;24.704;2024-03-22T04:13:18;90904.81;;;0.53;68.64
84785;BME280;75017;41.576;24.704;2024-03-22T04:15:43;90914.50;;;0.51;69.21
84785;BME280;75017;41.576;24.704;2024-03-22T04:18:09;90917.06;;;0.51;68.33
84785;BME280;75017;41.576;24.704;2024-03-22T04:20:34;90913.56;;;0.47;68.29
84785;BME280;75017;41.576;24.704;2024-03-22T04:23:00;90917.38;;;0.26;68.50
84785;BME280;75017;41.576;24.704;2024-03-22T04:25:25;90914.81;;;0.26;70.16
84785;BME280;75017;41.576;24.704;2024-03-22T04:27:51;90918.91;;;0.22;68.89
84785;BME280;75017;41.576;24.704;2024-03-22T04:30:16;90917.13;;;0.22;70.43
84785;BME280;75017;41.576;24.704;2024-03-22T04:32:42;90921.44;;;0.27;nan
84785;BME280;75017;41.576;24.704;2024-03-22T04:35:07;90930.59;;;0.28;69.85
84785;BME280;75017;41.576;24.704;2024-03-22T04:37:33;90929.03;;;0.32;70.32
84785;BME280;75017;41.576;24.704;2024-03-22T04:39:58;90933.09;;;0.33;69.85
84785;BME280;75017;41.576;24.704;2024-03-22T04:42:24;90936.63;;;0.13;70.37
84785;BME280;75017;41.576;24.704;2024-03-22T04:44:49;90934.66;;;0.29;69.71
84785;BME280;75017;41.576;24.704;2024-03-22T04:47:15;90931.84;;;0.30;71.04
84785;BME280;75017;41.576;24.704;2024-03-22T04:49:40;90937.88;;;0.39;69.93
84785;BME280;75017;41.576;24.704;2024-03-22T04:52:06;90938.84;;;0.43;68.44
84785;BME280;75017;41.576;24.704;2024-03-22T04:54:31;90931.94;;;0.44;68.95
84785;BME280;75017;41.576;24.704;2024-03-22T04:56:57;90931.88;;;0.49;68.55
84785;BME280;75017;41.576;24.704;2024-03-22T04:59:22;90932.81;;;0.58;68.94
84785;BME280;75017;41.576;24.704;2024-03-22T05:01:48;90935.59;;;0.62;69.19
84785;BME280;75017;41.576;24.704;2024-03-22T05:04:13;90938.94;;;0.57;69.29
84785;BME280;75017;41.576;24.704;2024-03-22T05:06:39;90940.63;;;0.67;69.78
84785;BME280;75017;41.576;24.704;2024-03-22T05:09:04;90930.50;;;0.80;67.55
84785;BME280;75017;41.576;24.704;2024-03-22T05:11:30;90935.88;;;0.79;68.34
84785;BME280;75017;41.576;24.704;2024-03-22T05:13:57;90929.53;;;0.76;69.07
84785;BME280;75017;41.576;24.704;2024-03-22T05:16:22;90934.03;;;0.84;68.56
84785;BME280;75017;41.576;24.704;2024-03-22T05:18:49;90939.53;;;0.91;67.57
84785;BME280;75017;41.576;24.704;2024-03-22T05:21:14;90940.78;;;0.94;67.95
84785;BME280;75017;41.576;24.704;2024-03-22T05:23:40;90944.44;;;0.88;68.23
84785;BME280;75017;41.576;24.704;2024-03-22T05:26:05;90953.22;;;1.00;68.80
84785;BME280;75017;41.576;24.704;2024-03-22T05:28:31;90947.00;;;1.06;68.44
84785;BME280;75017;41.576;24.704;2024-03-22T05:30:56;90949.50;;;1.11;67.18
84785;BME280;75017;41.576;24.704;2024-03-22T05:33:22;90951.50;;;1.14;68.58
84785;BME280;75017;41.576;24.704;2024-03-22T05:35:47;90952.81;;;1.12;68.64
84785;BME280;75017;41.576;24.704;2024-03-22T05:38:12;90956.47;;;1.25;67.42
84785;BME280;75017;41.576;24.704;2024-03-22T05:40:38;90952.81;;;1.31;68.37
84785;BME280;75017;41.576;24.704;2024-03-22T05:43:04;90948.25;;;1.28;67.15
84785;BME280;75017;41.576;24.704;2024-03-22T05:45:30;90948.31;;;1.41;67.89
84785;BME280;75017;41.576;24.704;2024-03-22T05:47:55;90948.81;;;1.43;67.97
84785;BME280;75017;41.576;24.704;2024-03-22T05:50:21;90952.50;;;1.51;67.28
84785;BME280;75017;41.576;24.704;2024-03-22T05:52:46;90949.13;;;1.55;66.71
84785;BME280;75017;41.576;24.704;2024-03-22T05:55:12;90959.22;;;1.65;66.58
84785;BME280;75017;41.576;24.704;2024-03-22T05:57:37;90958.75;;;1.77;67.23
84785;BME280;75017;41.576;24.704;2024-03-22T06:00:04;90966.22;;;1.92;66.68
84785;BME280;75017;41.576;24.704;2024-03-22T06:02:29;90958.84;;;2.04;66.71
84785;BME280;75017;41.576;24.704;2024-03-22T06:04:55;90960.88;;;2.34;65.92
84785;BME280;75017;41.576;24.704;2024-03-22T06:07:20;90951.97;;;2.86;63.61
84785;BME280;75017;41.576;24.704;2024-03-22T06:09:46;90953.25;;;3.60;60.69
84785;BME280;75017;41.576;24.704;2024-03-22T06:12:12;90958.59;;;4.48;57.37
84785;BME280;75017;41.576;24.704;2024-03-22T06:14:39;90958.69;;;5.21;55.79
84785;BME280;75017;41.576;24.704;2024-03-22T06:17:06;90959.81;;;5.72;54.50
84785;BME280;75017;41.576;24.704;2024-03-22T06:19:31;90954.63;;;6.32;52.81
84785;BME280;75017;41.576;24.704;2024-03-22T06:21:57;90960.25;;;6.08;51.36
84785;BME280;75017;41.576;24.704;2024-03-22T06:24:22;90955.47;;;6.53;51.15
84785;BME280;75017;41.576;24.704;2024-03-22T06:26:48;90957.03;;;6.83;50.95
84785;BME280;75017;41.576;24.704;2024-03-22T06:29:15;90950.06;;;6.84;49.14
84785;BME280;75017;41.576;24.704;2024-03-22T06:31:42;90958.34;;;7.27;50.41
84785;BME280;75017;41.576;24.704;2024-03-22T06:34:07;90951.81;;;7.29;48.88
84785;BME280;75017;41.576;24.704;2024-03-22T06:36:33;90954.56;;;7.74;48.77
84785;BME280;75017;41.576;24.704;2024-03-22T06:38:59;90959.97;;;8.35;47.27
84785;BME280;75017;41.576;24.704;2024-03-22T06:41:25;90957.31;;;8.43;44.67
84785;BME280;75017;41.576;24.704;2024-03-22T06:43:51;90955.03;;;8.87;43.33
84785;BME280;75017;41.576;24.704;2024-03-22T06:46:17;90948.38;;;9.10;42.63
84785;BME280;75017;41.576;24.704;2024-03-22T06:48:42;90945.56;;;9.15;41.38
84785;BME280;75017;41.576;24.704;2024-03-22T06:51:08;90960.09;;;9.68;41.84
84785;BME280;75017;41.576;24.704;2024-03-22T06:53:33;90972.59;;;10.06;40.25
84785;BME280;75017;41.576;24.704;2024-03-22T06:55:59;90961.16;;;10.47;38.53
84785;BME280;75017;41.576;24.704;2024-03-22T06:58:24;90963.06;;;10.77;37.10
84785;BME280;75017;41.576;24.704;2024-03-22T07:00:50;90960.53;;;10.81;35.89
84785;BME280;75017;41.576;24.704;2024-03-22T07:03:15;90959.34;;;10.78;35.95
84785;BME280;75017;41.576;24.704;2024-03-22T07:05:42;90956.19;;;11.32;36.79
84785;BME280;75017;41.576;24.704;2024-03-22T07:08:08;90959.97;;;12.04;35.22
84785;BME280;75017;41.576;24.704;2024-03-22T07:10:34;90961.56;;;11.89;33.94
84785;BME280;75017;41.576;24.704;2024-03-22T07:13:00;90964.91;;;11.08;33.36
84785;BME280;75017;41.576;24.704;2024-03-22T07:15:26;90966.41;;;10.78;33.72
84785;BME280;75017;41.576;24.704;2024-03-22T07:17:51;90969.66;;;10.90;33.54
84785;BME280;75017;41.576;24.704;2024-03-22T07:20:17;90959.56;;;11.01;33.24
84785;BME280;75017;41.576;24.704;2024-03-22T07:22:44;90965.63;;;11.40;31.88
84785;BME280;75017;41.576;24.704;2024-03-22T07:25:09;90970.88;;;11.75;32.29
84785;BME280;75017;41.576;24.704;2024-03-22T07:27:36;90976.72;;;11.87;30.50
84785;BME280;75017;41.576;24.704;2024-03-22T07:30:01;90976.53;;;11.96;31.18
84785;BME280;75017;41.576;24.704;2024-03-22T07:32:28;90972.00;;;11.27;31.76
84785;BME280;75017;41.576;24.704;2024-03-22T07:34:54;90977.75;;;12.02;30.65
84785;BME280;75017;41.576;24.704;2024-03-22T07:37:19;90979.00;;;12.08;31.37
84785;BME280;75017;41.576;24.704;2024-03-22T07:39:45;90970.94;;;12.13;29.50
84785;BME280;75017;41.576;24.704;2024-03-22T07:42:11;90979.19;;;12.76;28.24
84785;BME280;75017;41.576;24.704;2024-03-22T07:44:36;90985.31;;;12.64;27.72
84785;BME280;75017;41.576;24.704;2024-03-22T07:47:02;91002.16;;;12.51;28.80
84785;BME280;75017;41.576;24.704;2024-03-22T07:49:27;90996.59;;;12.34;28.15
84785;BME280;75017;41.576;24.704;2024-03-22T07:51:53;90994.41;;;12.17;28.27
84785;BME280;75017;41.576;24.704;2024-03-22T07:54:19;91000.31;;;12.52;28.41
84785;BME280;75017;41.576;24.704;2024-03-22T07:56:45;90985.78;;;12.51;28.94
84785;BME280;75017;41.576;24.704;2024-03-22T07:59:11;90982.63;;;12.80;26.93
84785;BME280;75017;41.576;24.704;2024-03-22T08:01:36;90991.69;;;12.67;27.42
84785;BME280;75017;41.576;24.704;2024-03-22T08:04:02;90980.19;;;13.10;26.50
84785;BME280;75017;41.576;24.704;2024-03-22T08:06:27;90992.31;;;13.02;27.25
84785;BME280;75017;41.576;24.704;2024-03-22T08:08:53;90991.50;;;12.79;27.07
84785;BME280;75017;41.576;24.704;2024-03-22T08:11:18;90984.50;;;13.02;27.58
84785;BME280;75017;41.576;24.704;2024-03-22T08:13:43;90986.72;;;13.46;27.08
84785;BME280;75017;41.576;24.704;2024-03-22T08:16:09;90986.09;;;13.07;26.99
84785;BME280;75017;41.576;24.704;2024-03-22T08:18:35;90991.78;;;12.93;26.02
84785;BME280;75017;41.576;24.704;2024-03-22T08:21:01;90988.53;;;13.68;26.70
84785;BME280;75017;41.576;24.704;2024-03-22T08:23:27;90994.06;;;13.89;24.17
84785;BME280;75017;41.576;24.704;2024-03-22T08:25:53;90998.16;;;14.16;24.65
84785;BME280;75017;41.576;24.704;2024-03-22T08:28:18;90988.94;;;13.96;25.29
84785;BME280;75017;41.576;24.704;2024-03-22T08:30:44;90994.56;;;13.98;25.04
84785;BME280;75017;41.576;24.704;2024-03-22T08:33:10;90999.84;;;14.05;25.09
84785;BME280;75017;41.576;24.704;2024-03-22T08:35:36;91001.25;;;13.99;25.32
84785;BME280;75017;41.576;24.704;2024-03-22T08:38:02;90999.97;;;14.12;23.88
84785;BME280;75017;41.576;24.704;2024-03-22T08:40:28;91005.97;;;14.42;23.42
84785;BME280;75017;41.576;24.704;2024-03-22T08:42:53;90993.72;;;14.80;23.87
84785;BME280;75017;41.576;24.704;2024-03-22T08:45:19;90992.56;;;14.77;23.43
84785;BME280;75017;41.576;24.704;2024-03-22T08:47:45;90984.75;;;15.14;22.31
84785;BME280;75017;41.576;24.704;2024-03-22T08:50:13;90993.91;;;14.97;23.27
84785;BME280;75017;41.576;24.704;2024-03-22T08:52:39;90981.66;;;15.45;22.06
84785;BME280;75017;41.576;24.704;2024-03-22T08:55:05;90980.38;;;15.69;21.09
84785;BME280;75017;41.576;24.704;2024-03-22T08:57:34;90982.94;;;16.20;20.52
84785;BME280;75017;41.576;24.704;2024-03-22T08:59:59;90985.13;;;16.11;19.82
84785;BME280;75017;41.576;24.704;2024-03-22T09:02:25;90981.44;;;16.19;20.86
84785;BME280;75017;41.576;24.704;2024-03-22T09:04:50;90975.59;;;16.47;18.97
84785;BME280;75017;41.576;24.704;2024-03-22T09:07:16;90974.53;;;15.90;20.19
84785;BME280;75017;41.576;24.704;2024-03-22T09:09:42;90984.03;;;16.15;19.67
84785;BME280;75017;41.576;24.704;2024-03-22T09:12:07;90976.44;;;16.65;19.60
84785;BME280;75017;41.576;24.704;2024-03-22T09:14:33;90982.53;;;17.01;21.01
84785;BME280;75017;41.576;24.704;2024-03-22T09:16:58;90991.53;;;17.03;19.03
84785;BME280;75017;41.576;24.704;2024-03-22T09:19:24;90989.78;;;17.60;17.40
84785;BME280;75017;41.576;24.704;2024-03-22T09:21:49;90990.50;;;17.75;17.33
84785;BME280;75017;41.576;24.704;2024-03-22T09:24:15;90991.59;;;17.45;17.23
84785;BME280;75017;41.576;24.704;2024-03-22T09:26:40;90980.34;;;17.45;17.44
84785;BME280;75017;41.576;24.704;2024-03-22T09:29:06;90987.53;;;17.62;16.87
84785;BME280;75017;41.576;24.704;2024-03-22T09:31:32;90987.88;;;17.99;15.60
84785;BME280;75017;41.576;24.704;2024-03-22T09:33:58;90986.41;;;17.81;15.84
84785;BME280;75017;41.576;24.704;2024-03-22T09:36:24;90980.38;;;17.98;15.75
84785;BME280;75017;41.576;24.704;2024-03-22T09:38:50;90987.78;;;18.45;17.03
84785;BME280;75017;41.576;24.704;2024-03-22T09:41:18;90992.91;;;18.91;16.76
84785;BME280;75017;41.576;24.704;2024-03-22T09:43:49;90988.16;;;19.41;16.48
84785;BME280;75017;41.576;24.704;2024-03-22T09:46:18;90990.91;;;19.75;15.63
84785;BME280;75017;41.576;24.704;2024-03-22T09:48:45;90985.72;;;19.71;13.99
84785;BME280;75017;41.576;24.704;2024-03-22T09:51:12;90978.00;;;19.40;13.56
84785;BME280;75017;41.576;24.704;2024-03-22T09:53:39;90983.91;;;18.89;14.03
84785;BME280;75017;41.576;24.704;2024-03-22T09:56:05;90975.66;;;18.90;14.28
84785;BME280;75017;41.576;24.704;2024-03-22T09:58:31;90975.66;;;18.87;15.77
84785;BME280;75017;41.576;24.704;2024-03-22T10:00:57;90985.03;;;19.60;15.30
84785;BME280;75017;41.576;24.704;2024-03-22T10:03:25;90974.59;;;19.98;14.64
84785;BME280;75017;41.576;24.704;2024-03-22T10:05:51;90970.53;;;19.90;15.42
84785;BME280;75017;41.576;24.704;2024-03-22T10:08:16;90978.47;;;20.23;14.98
84785;BME280;75017;41.576;24.704;2024-03-22T10:10:42;90974.50;;;20.08;12.46
84785;BME280;75017;41.576;24.704;2024-03-22T10:13:08;90972.38;;;20.33;13.11
84785;BME280;75017;41.576;24.704;2024-03-22T10:15:34;90967.81;;;20.41;12.17
84785;BME280;75017;41.576;24.704;2024-03-22T10:17:59;90960.03;;;20.30;12.93
84785;BME280;75017;41.576;24.704;2024-03-22T10:20:25;90957.53;;;20.84;12.62
84785;BME280;75017;41.576;24.704;2024-03-22T10:22:58;90957.38;;;20.30;13.06
84785;BME280;75017;41.576;24.704;2024-03-22T10:25:25;90951.16;;;20.10;12.96
84785;BME280;75017;41.576;24.704;2024-03-22T10:27:50;90953.56;;;19.91;13.86
84785;BME280;75017;41.576;24.704;2024-03-22T10:30:16;90950.53;;;19.48;13.37
84785;BME280;75017;41.576;24.704;2024-03-22T10:32:43;90957.41;;;19.27;12.66
84785;BME280;75017;41.576;24.704;2024-03-22T10:35:12;90947.19;;;19.47;13.94
84785;BME280;75017;41.576;24.704;2024-03-22T10:37:39;90947.72;;;19.17;14.02
84785;BME280;75017;41.576;24.704;2024-03-22T10:40:05;90946.78;;;19.49;12.82
84785;BME280;75017;41.576;24.704;2024-03-22T10:42:41;90948.28;;;19.94;12.04
84785;BME280;75017;41.576;24.704;2024-03-22T10:45:08;90944.84;;;20.41;12.78
84785;BME280;75017;41.576;24.704;2024-03-22T10:47:35;90929.72;;;20.79;12.38
84785;BME280;75017;41.576;24.704;2024-03-22T10:55:13;90930.91;;;21.05;11.87
84785;BME280;75017;41.576;24.704;2024-03-22T10:57:42;90932.97;;;21.21;12.71
84785;BME280;75017;41.576;24.704;2024-03-22T11:00:09;90932.66;;;21.69;12.18
84785;BME280;75017;41.576;24.704;2024-03-22T11:02:36;90934.19;;;21.93;12.47
84785;BME280;75017;41.576;24.704;2024-03-22T11:05:02;90932.00;;;21.88;11.67
84785;BME280;75017;41.576;24.704;2024-03-22T11:07:31;90914.47;;;21.74;10.67
84785;BME280;75017;41.576;24.704;2024-03-22T11:09:57;90916.66;;;22.02;12.04
84785;BME280;75017;41.576;24.704;2024-03-22T11:12:26;90918.81;;;21.88;11.61
84785;BME280;75017;41.576;24.704;2024-03-22T11:14:53;90912.34;;;21.89;11.63
84785;BME280;75017;41.576;24.704;2024-03-22T11:17:18;90895.41;;;21.40;10.81
84785;BME280;75017;41.576;24.704;2024-03-22T11:19:44;90905.28;;;21.32;11.39
84785;BME280;75017;41.576;24.704;2024-03-22T11:22:10;90896.38;;;21.49;10.55
84785;BME280;75017;41.576;24.704;2024-03-22T11:24:41;90897.47;;;21.52;11.11
84785;BME280;75017;41.576;24.704;2024-03-22T11:27:06;90890.75;;;21.71;10.66
84785;BME280;75017;41.576;24.704;2024-03-22T11:29:32;90887.44;;;21.67;11.73
84785;BME280;75017;41.576;24.704;2024-03-22T11:31:58;90891.69;;;21.60;11.98
84785;BME280;75017;41.576;24.704;2024-03-22T11:34:23;90887.16;;;21.84;10.39
84785;BME280;75017;41.576;24.704;2024-03-22T11:36:49;90894.31;;;21.84;10.42
84785;BME280;75017;41.576;24.704;2024-03-22T11:39:16;90889.84;;;21.57;9.26
84785;BME280;75017;41.576;24.704;2024-03-22T11:41:43;90887.41;;;20.90;9.84
84785;BME280;75017;41.576;24.704;2024-03-22T11:44:09;90885.72;;;20.46;10.70
84785;BME280;75017;41.576;24.704;2024-03-22T11:46:34;90886.22;;;20.68;10.40
84785;BME280;75017;41.576;24.704;2024-03-22T11:49:00;90881.47;;;20.86;11.33
84785;BME280;75017;41.576;24.704;2024-03-22T11:51:25;90881.53;;;21.09;11.65
84785;BME280;75017;41.576;24.704;2024-03-22T11:53:52;90877.34;;;21.38;11.51
84785;BME280;75017;41.576;24.704;2024-03-22T11:56:19;90875.63;;;21.28;11.64
84785;BME280;75017;41.576;24.704;2024-03-22T11:58:49;90878.03;;;21.65;11.79
84785;BME280;75017;41.576;24.704;2024-03-22T12:01:15;90876.22;;;21.13;11.29
84785;BME280;75017;41.576;24.704;2024-03-22T12:03:43;90869.44;;;21.12;11.69
84785;BME280;75017;41.576;24.704;2024-03-22T12:06:10;90869.34;;;20.62;11.68
84785;BME280;75017;41.576;24.704;2024-03-22T12:08:37;90865.88;;;20.95;11.55
84785;BME280;75017;41.576;24.704;2024-03-22T12:11:03;90866.56;;;21.29;11.85
84785;BME280;75017;41.576;24.704;2024-03-22T12:13:29;90863.09;;;21.05;10.19
84785;BME280;75017;41.576;24.704;2024-03-22T12:15:54;90854.72;;;21.14;9.59
84785;BME280;75017;41.576;24.704;2024-03-22T12:18:20;90856.94;;;20.62;9.94
84785;BME280;75017;41.576;24.704;2024-03-22T12:20:45;90845.72;;;19.50;10.86
84785;BME280;75017;41.576;24.704;2024-03-22T12:23:11;90847.00;;;19.27;10.87
84785;BME280;75017;41.576;24.704;2024-03-22T12:25:36;90847.50;;;19.63;11.44
84785;BME280;75017;41.576;24.704;2024-03-22T12:28:02;90841.53;;;19.93;11.62
84785;BME280;75017;41.576;24.704;2024-03-22T12:30:27;90844.25;;;19.86;10.94
84785;BME280;75017;41.576;24.704;2024-03-22T12:32:53;90842.44;;;19.79;11.09
84785;BME280;75017;41.576;24.704;2024-03-22T12:35:18;90846.16;;;20.19;12.00
84785;BME280;75017;41.576;24.704;2024-03-22T12:37:44;90844.56;;;20.25;12.00
84785;BME280;75017;41.576;24.704;2024-03-22T12:40:10;90846.50;;;20.21;11.71
84785;BME280;75017;41.576;24.704;2024-03-22T12:42:36;90838.84;;;20.64;12.16
84785;BME280;75017;41.576;24.704;2024-03-22T12:45:01;90834.84;;;20.22;11.57
84785;BME280;75017;41.576;24.704;2024-03-22T12:47:28;90833.06;;;20.46;11.72
84785;BME280;75017;41.576;24.704;2024-03-22T12:49:53;90827.34;;;21.04;11.00
84785;BME280;75017;41.576;24.704;2024-03-22T12:52:19;90823.38;;;20.93;10.81